createdAt,value
2019-04-27T00:02:26.571Z,11.50
2019-04-27T00:08:39.152Z,10.60
2019-04-27T00:11:23.329Z,12.63
2019-04-27T00:14:04.742Z,10.80
2019-04-27T00:16:54.096Z,10.30
2019-04-27T00:19:55.629Z,10.03
2019-04-27T00:25:43.794Z,9.73
2019-04-27T00:28:24.510Z,9.73
2019-04-27T00:31:05.589Z,10.30
2019-04-27T00:33:46.117Z,11.00
2019-04-27T00:36:35.084Z,10.33
2019-04-27T00:42:23.222Z,12.07
2019-04-27T00:45:06.578Z,11.40
2019-04-27T00:47:56.509Z,12.23
2019-04-27T00:50:29.841Z,12.80
2019-04-27T00:56:29.017Z,13.17
2019-04-27T01:05:31.623Z,12.10
2019-04-27T01:08:13.920Z,12.90
2019-04-27T01:10:54.456Z,13.67
2019-04-27T01:13:35.105Z,13.93
2019-04-27T01:16:20.093Z,13.97
2019-04-27T01:18:59.132Z,13.60
2019-04-27T01:21:39.702Z,14.13
2019-04-27T01:24:20.561Z,14.50
2019-04-27T01:27:20.935Z,14.43
2019-04-27T01:30:01.811Z,13.97
2019-04-27T01:32:42.967Z,14.20
2019-04-27T01:35:23.336Z,13.90
2019-04-27T01:38:04.108Z,13.27
2019-04-27T01:40:44.526Z,14.63
2019-04-27T01:43:25.224Z,12.87
2019-04-27T01:46:05.743Z,13.50
2019-04-27T01:48:48.909Z,13.40
2019-04-27T01:51:30.671Z,13.67
2019-04-27T01:54:13.287Z,12.50
2019-04-27T01:56:53.654Z,12.70
2019-04-27T01:59:34.859Z,13.20
2019-04-27T02:02:34.959Z,13.00
2019-04-27T02:05:35.267Z,11.63
2019-04-27T02:08:15.710Z,11.23
2019-04-27T02:10:54.937Z,11.10
2019-04-27T02:13:43.043Z,11.50
2019-04-27T02:16:31.107Z,10.60
2019-04-27T02:19:19.490Z,10.10
2019-04-27T02:22:08.904Z,10.27
2019-04-27T02:24:56.966Z,9.63
2019-04-27T02:31:06.363Z,8.73
2019-04-27T02:33:51.922Z,8.90
2019-04-27T02:36:33.065Z,9.67
2019-04-27T02:39:13.830Z,8.83
2019-04-27T02:41:54.846Z,8.00
2019-04-27T02:44:40.569Z,8.30
2019-04-27T02:47:21.154Z,8.93
2019-04-27T02:50:01.652Z,9.27
2019-04-27T02:52:46.380Z,9.70
2019-04-27T02:55:29.261Z,8.73
2019-04-27T02:58:12.498Z,8.20
2019-04-27T03:00:52.254Z,9.03
2019-04-27T03:03:31.468Z,8.63
2019-04-27T03:06:19.981Z,8.23
2019-04-27T03:09:10.455Z,7.73
2019-04-27T03:18:19.494Z,8.03
2019-04-27T03:21:13.156Z,8.50
2019-04-27T03:24:01.323Z,8.70
2019-04-27T03:29:54.909Z,8.47
2019-04-27T03:32:35.914Z,8.87
2019-04-27T03:35:16.956Z,9.07
2019-04-27T03:37:56.129Z,8.63
2019-04-27T03:40:44.203Z,8.57
2019-04-27T03:43:32.305Z,9.07
2019-04-27T03:46:20.706Z,8.70
2019-04-27T03:49:20.376Z,9.20
2019-04-27T03:52:19.855Z,9.30
2019-04-27T03:55:13.291Z,8.63
2019-04-27T03:58:12.092Z,8.73
2019-04-27T04:01:01.528Z,9.53
2019-04-27T04:03:50.218Z,9.53
2019-04-27T04:06:40.147Z,9.47
2019-04-27T04:09:40.359Z,8.73
2019-04-27T04:12:50.104Z,9.50
2019-04-27T04:15:59.966Z,10.63
2019-04-27T04:19:09.483Z,11.13
2019-04-27T04:21:56.567Z,10.73
2019-04-27T04:24:44.623Z,10.90
2019-04-27T04:27:42.516Z,11.33
2019-04-27T04:30:21.988Z,11.30
2019-04-27T04:33:02.445Z,11.40
2019-04-27T04:35:43.673Z,10.80
2019-04-27T04:38:24.340Z,12.63
2019-04-27T04:41:09.568Z,11.70
2019-04-27T04:49:45.603Z,11.33
2019-04-27T04:52:26.380Z,12.70
2019-04-27T04:55:09.696Z,12.97
2019-04-27T04:57:49.967Z,12.30
2019-04-27T05:00:30.749Z,13.60
2019-04-27T05:03:11.607Z,13.27
2019-04-27T05:05:52.425Z,13.73
2019-04-27T05:08:33.535Z,13.50
2019-04-27T05:11:14.643Z,13.77
2019-04-27T05:13:55.433Z,15.13
2019-04-27T05:16:36.693Z,15.87
2019-04-27T05:19:18.892Z,15.30
2019-04-27T05:21:59.861Z,14.40
2019-04-27T05:24:41.119Z,15.27
2019-04-27T05:27:21.503Z,17.27
2019-04-27T05:30:02.057Z,14.37
2019-04-27T05:32:43.177Z,16.27
2019-04-27T05:35:23.769Z,15.70
2019-04-27T05:38:07.290Z,15.37
2019-04-27T05:40:47.437Z,15.60
2019-04-27T05:43:34.744Z,14.87
2019-04-27T05:46:39.488Z,14.90
2019-04-27T05:49:23.920Z,16.03
2019-04-27T05:52:08.546Z,15.63
2019-04-27T05:54:49.437Z,16.27
2019-04-27T05:57:31.550Z,15.90
2019-04-27T06:00:13.695Z,16.90
2019-04-27T06:02:54.456Z,17.00
2019-04-27T06:05:34.960Z,14.93
2019-04-27T06:08:15.558Z,15.47
2019-04-27T06:10:56.190Z,16.00
2019-04-27T06:13:39.182Z,15.70
2019-04-27T06:16:21.061Z,16.33
2019-04-27T06:19:03.345Z,16.17
2019-04-27T06:21:46.485Z,15.80
2019-04-27T06:24:29.772Z,16.87
2019-04-27T06:27:15.193Z,16.67
2019-04-27T06:29:59.305Z,17.67
2019-04-27T06:32:41.309Z,16.30
2019-04-27T06:35:22.843Z,17.10
2019-04-27T06:40:59.060Z,17.90
2019-04-27T06:43:29.384Z,17.73
2019-04-27T06:46:19.891Z,16.83
2019-04-27T06:48:49.554Z,18.10
2019-04-27T06:51:19.556Z,17.10
2019-04-27T06:54:09.248Z,17.00
2019-04-27T06:56:41.986Z,17.50
2019-04-27T06:59:11.919Z,15.67
2019-04-27T07:02:00.912Z,14.70
2019-04-27T07:04:30.759Z,15.67
2019-04-27T07:07:01.757Z,16.63
2019-04-27T07:09:30.723Z,14.87
2019-04-27T07:12:19.270Z,15.23
2019-04-27T07:14:52.829Z,16.47
2019-04-27T07:17:38.849Z,14.60
2019-04-27T07:20:09.018Z,16.20
2019-04-27T07:22:39.672Z,16.00
2019-04-27T07:25:28.902Z,15.03
2019-04-27T07:31:43.895Z,16.90
2019-04-27T07:34:40.417Z,14.90
2019-04-27T07:40:22.155Z,16.37
2019-04-27T07:46:29.829Z,15.30
2019-04-27T07:49:16.684Z,14.80
2019-04-27T07:52:04.923Z,14.70
2019-04-27T07:54:53.027Z,16.40
2019-04-27T07:57:41.105Z,16.57
2019-04-27T08:00:29.392Z,15.80
2019-04-27T08:03:19.442Z,17.40
2019-04-27T08:06:08.510Z,17.30
2019-04-27T08:11:53.380Z,17.50
2019-04-27T08:14:41.670Z,18.67
2019-04-27T08:17:22.327Z,18.73
2019-04-27T08:20:03.183Z,18.93
2019-04-27T08:22:43.977Z,18.73
2019-04-27T08:25:24.943Z,21.23
2019-04-27T08:34:42.824Z,22.43
2019-04-27T08:37:24.942Z,20.60
2019-04-27T08:40:05.888Z,20.30
2019-04-27T08:42:49.184Z,20.23
2019-04-27T08:45:30.234Z,21.37
2019-04-27T08:48:10.892Z,20.57
2019-04-27T08:50:50.833Z,19.80
2019-04-27T08:53:39.758Z,21.17
2019-04-27T08:56:30.486Z,21.20
2019-04-27T08:59:19.496Z,20.77
2019-04-27T09:02:09.330Z,20.40
2019-04-27T09:04:59.503Z,20.93
2019-04-27T09:08:06.424Z,19.17
2019-04-27T09:11:13.544Z,20.43
2019-04-27T09:14:20.749Z,20.07
2019-04-27T09:17:26.774Z,19.23
2019-04-27T09:20:25.108Z,19.87
2019-04-27T09:23:13.146Z,18.57
2019-04-27T09:26:01.340Z,16.80
2019-04-27T09:28:49.396Z,18.70
2019-04-27T09:31:37.496Z,18.57
2019-04-27T09:34:26.115Z,18.40
2019-04-27T09:37:15.982Z,16.90
2019-04-27T09:40:06.327Z,16.80
2019-04-27T09:42:47.544Z,15.77
2019-04-27T09:45:28.536Z,15.30
2019-04-27T09:48:09.087Z,16.23
2019-04-27T09:50:50.392Z,17.40
2019-04-27T09:53:31.629Z,15.20
2019-04-27T09:56:12.648Z,14.00
2019-04-27T09:58:57.017Z,16.10
2019-04-27T10:01:36.343Z,15.20
2019-04-27T10:04:17.488Z,14.60
2019-04-27T10:06:58.221Z,15.57
2019-04-27T10:09:39.047Z,14.93
2019-04-27T10:12:19.829Z,15.40
2019-04-27T10:15:00.738Z,16.17
2019-04-27T10:17:41.475Z,15.33
2019-04-27T10:23:21.443Z,16.47
2019-04-27T10:26:02.563Z,15.50
2019-04-27T10:34:42.336Z,12.80
2019-04-27T10:37:22.733Z,12.77
2019-04-27T10:40:03.506Z,12.87
2019-04-27T10:42:45.908Z,13.57
2019-04-27T10:45:26.807Z,12.90
2019-04-27T10:48:07.623Z,12.70
2019-04-27T10:50:48.375Z,12.70
2019-04-27T10:53:28.979Z,13.50
2019-04-27T10:56:09.517Z,11.90
2019-04-27T10:58:50.172Z,12.53
2019-04-27T11:01:31.567Z,13.37
2019-04-27T11:04:19.000Z,12.20
2019-04-27T11:07:02.387Z,11.60
2019-04-27T11:09:43.577Z,12.60
2019-04-27T11:12:24.275Z,11.30
2019-04-27T11:15:05.889Z,12.10
2019-04-27T11:17:48.159Z,10.83
2019-04-27T11:20:27.774Z,10.93
2019-04-27T11:23:16.482Z,11.67
2019-04-27T11:26:07.580Z,12.00
2019-04-27T11:28:55.706Z,11.63
2019-04-27T11:31:43.751Z,12.17
2019-04-27T11:34:50.919Z,11.57
2019-04-27T11:37:38.946Z,9.37
2019-04-27T11:40:27.342Z,11.80
2019-04-27T11:43:16.074Z,11.47
2019-04-27T11:46:06.163Z,9.30
2019-04-27T11:48:58.049Z,8.57
2019-04-27T11:51:46.442Z,7.57
2019-04-27T11:54:35.624Z,7.30
2019-04-27T11:57:24.334Z,7.37
2019-04-27T12:03:22.068Z,7.47
2019-04-27T12:06:10.149Z,6.90
2019-04-27T12:08:58.152Z,6.70
2019-04-27T12:11:46.312Z,6.40
2019-04-27T12:14:34.355Z,6.30
2019-04-27T12:17:16.508Z,7.37
2019-04-27T12:19:57.490Z,6.33
2019-04-27T12:22:38.265Z,5.93
2019-04-27T12:25:19.039Z,5.90
2019-04-27T12:28:18.818Z,6.60
2019-04-27T12:31:18.515Z,6.93
2019-04-27T12:33:58.965Z,5.80
2019-04-27T12:36:39.339Z,5.63
2019-04-27T12:39:19.727Z,5.63
2019-04-27T12:42:00.451Z,6.80
2019-04-27T12:44:42.452Z,6.70
2019-04-27T12:47:22.059Z,8.37
2019-04-27T12:50:10.301Z,8.47
2019-04-27T12:56:13.851Z,6.47
2019-04-27T13:05:10.819Z,6.30
2019-04-27T13:07:58.859Z,6.50
2019-04-27T13:10:46.887Z,7.57
2019-04-27T13:13:36.697Z,7.23
2019-04-27T13:16:24.699Z,7.17
2019-04-27T13:19:12.781Z,6.17
2019-04-27T13:22:00.998Z,6.10
2019-04-27T13:24:49.091Z,6.50
2019-04-27T13:27:37.108Z,6.37
2019-04-27T13:30:25.755Z,5.37
2019-04-27T13:33:17.238Z,6.10
2019-04-27T13:36:07.244Z,5.93
2019-04-27T13:38:55.994Z,5.53
2019-04-27T13:41:37.701Z,5.63
2019-04-27T13:44:18.333Z,4.77
2019-04-27T13:47:18.386Z,4.53
2019-04-27T13:50:24.085Z,4.83
2019-04-27T13:53:06.024Z,4.50
2019-04-27T13:55:48.464Z,4.30
2019-04-27T13:58:29.078Z,5.37
2019-04-27T14:01:09.575Z,4.10
2019-04-27T14:03:49.997Z,3.83
2019-04-27T14:06:30.334Z,4.40
2019-04-27T14:09:12.673Z,4.33
2019-04-27T14:11:57.336Z,4.23
2019-04-27T14:14:39.002Z,4.10
2019-04-27T14:17:20.169Z,3.50
2019-04-27T14:20:00.742Z,4.10
2019-04-27T14:22:41.338Z,3.83
2019-04-27T14:25:21.858Z,3.90
2019-04-27T14:28:02.935Z,4.67
2019-04-27T14:30:42.389Z,3.53
2019-04-27T14:33:23.211Z,4.30
2019-04-27T14:36:03.819Z,3.10
2019-04-27T14:38:44.603Z,3.67
2019-04-27T14:41:25.208Z,4.37
2019-04-27T14:44:08.782Z,3.80
2019-04-27T14:46:48.645Z,4.20
2019-04-27T14:49:29.718Z,4.33
2019-04-27T14:52:10.788Z,3.80
2019-04-27T14:54:51.566Z,4.17
2019-04-27T14:57:32.212Z,4.13
2019-04-27T15:00:14.716Z,3.60
2019-04-27T15:02:55.587Z,3.30
2019-04-27T15:05:36.622Z,3.80
2019-04-27T15:08:17.285Z,3.20
2019-04-27T15:10:57.920Z,3.00
2019-04-27T15:13:43.165Z,3.27
2019-04-27T15:16:21.275Z,3.90
2019-04-27T15:19:05.444Z,3.27
2019-04-27T15:21:56.432Z,3.13
2019-04-27T15:24:28.979Z,3.20
2019-04-27T15:27:11.315Z,2.80
2019-04-27T15:29:55.830Z,2.80
2019-04-27T15:32:53.807Z,2.83
2019-04-27T15:35:44.016Z,3.30
2019-04-27T15:38:26.348Z,2.67
2019-04-27T15:41:30.411Z,3.70
2019-04-27T15:44:09.611Z,2.80
2019-04-27T15:46:50.869Z,3.40
2019-04-27T15:49:31.237Z,3.13
2019-04-27T15:52:12.056Z,3.27
2019-04-27T15:54:52.879Z,3.27
2019-04-27T15:57:33.610Z,3.97
2019-04-27T16:00:20.990Z,3.80
2019-04-27T16:03:03.151Z,4.10
2019-04-27T16:05:44.212Z,3.47
2019-04-27T16:08:24.976Z,4.47
2019-04-27T16:11:11.740Z,3.57
2019-04-27T16:13:48.956Z,4.33
2019-04-27T16:16:33.381Z,5.10
2019-04-27T16:19:12.008Z,4.70
2019-04-27T16:21:54.089Z,3.37
2019-04-27T16:24:35.011Z,3.40
2019-04-27T16:27:18.058Z,3.87
2019-04-27T16:30:04.696Z,3.43
2019-04-27T16:32:44.533Z,3.20
2019-04-27T16:35:23.747Z,3.10
2019-04-27T16:41:14.477Z,3.70
2019-04-27T16:43:55.304Z,4.10
2019-04-27T16:46:39.434Z,4.57
2019-04-27T16:49:18.828Z,4.73
2019-04-27T16:52:00.014Z,4.20
2019-04-27T16:54:40.832Z,4.60
2019-04-27T16:57:21.556Z,4.80
2019-04-27T17:00:02.398Z,4.73
2019-04-27T17:02:43.254Z,5.53
2019-04-27T17:05:24.438Z,5.23
2019-04-27T17:08:06.382Z,4.87
2019-04-27T17:10:47.452Z,5.17
2019-04-27T17:13:30.589Z,4.53
2019-04-27T17:19:16.884Z,4.60
2019-04-27T17:21:57.565Z,4.90
2019-04-27T17:24:43.936Z,4.60
2019-04-27T17:27:29.799Z,5.00
2019-04-27T17:30:01.448Z,5.27
2019-04-27T17:33:11.841Z,4.80
2019-04-27T17:35:57.668Z,5.10
2019-04-27T17:38:50.713Z,4.20
2019-04-27T17:41:36.429Z,4.80
2019-04-27T17:44:24.463Z,4.47
2019-04-27T17:47:12.714Z,4.57
2019-04-27T17:50:00.886Z,4.97
2019-04-27T17:52:55.022Z,4.93
2019-04-27T17:55:39.051Z,4.40
2019-04-27T17:58:28.556Z,5.63
2019-04-27T18:01:19.180Z,5.93
2019-04-27T18:04:10.484Z,4.60
2019-04-27T18:07:02.117Z,4.70
2019-04-27T18:09:48.223Z,4.80
2019-04-27T18:12:36.148Z,4.60
2019-04-27T18:15:24.311Z,4.40
2019-04-27T18:18:31.617Z,5.20
2019-04-27T18:21:00.836Z,5.13
2019-04-27T18:32:59.398Z,5.83
2019-04-27T18:35:38.704Z,5.60
2019-04-27T18:38:19.409Z,4.80
2019-04-27T18:41:03.075Z,6.50
2019-04-27T18:43:50.615Z,5.33
2019-04-27T18:46:25.520Z,5.73
2019-04-27T18:52:29.106Z,4.10
2019-04-27T18:55:11.415Z,3.97
2019-04-27T18:57:54.345Z,2.90
2019-04-27T19:00:34.777Z,2.70
2019-04-27T19:03:15.568Z,2.43
2019-04-27T19:05:55.995Z,2.30
2019-04-27T19:08:38.494Z,1.80
2019-04-27T19:11:19.958Z,1.30
2019-04-27T19:14:00.490Z,1.60
2019-04-27T19:16:41.482Z,1.30
2019-04-27T19:19:22.299Z,1.63
2019-04-27T19:22:03.129Z,1.73
2019-04-27T19:24:43.956Z,1.80
2019-04-27T19:27:43.540Z,1.60
2019-04-27T19:33:23.230Z,1.40
2019-04-27T19:36:04.160Z,1.90
2019-04-27T19:38:43.467Z,1.60
2019-04-27T19:41:31.545Z,1.60
2019-04-27T19:44:19.648Z,1.40
2019-04-27T19:47:21.797Z,1.70
2019-04-27T19:49:57.599Z,1.40
2019-04-27T19:52:45.718Z,1.60
2019-04-27T19:55:33.788Z,1.47
2019-04-27T19:58:21.860Z,1.30
2019-04-27T20:01:29.543Z,1.37
2019-04-27T20:04:36.694Z,1.40
2019-04-27T20:07:25.052Z,1.23
2019-04-27T20:10:13.521Z,1.37
2019-04-27T20:13:01.630Z,1.60
2019-04-27T20:15:51.237Z,1.30
2019-04-27T20:18:41.165Z,2.40
2019-04-27T20:21:30.824Z,1.77
2019-04-27T20:24:19.232Z,2.13
2019-04-27T20:30:28.315Z,1.77
2019-04-27T20:43:52.881Z,1.23
2019-04-27T20:46:45.514Z,1.53
2019-04-27T20:49:38.166Z,1.67
2019-04-27T20:52:50.164Z,2.80
2019-04-27T20:55:42.803Z,2.20
2019-04-27T20:58:34.153Z,1.70
2019-04-27T21:01:12.467Z,2.00
2019-04-27T21:04:39.687Z,1.83
2019-04-27T21:14:38.777Z,1.80
2019-04-27T21:17:50.742Z,2.70
2019-04-27T21:21:04.573Z,2.20
2019-04-27T21:30:40.603Z,4.77
2019-04-27T21:33:48.787Z,2.93
2019-04-27T21:36:31.038Z,3.40
2019-04-27T21:39:14.709Z,2.37
2019-04-27T21:42:02.353Z,2.10
2019-04-27T21:44:46.385Z,2.37
2019-04-27T21:47:28.329Z,2.70
2019-04-27T21:50:11.967Z,2.70
2019-04-27T21:55:42.536Z,2.90
2019-04-27T21:58:31.665Z,2.67
2019-04-27T22:21:13.146Z,2.70
2019-04-27T22:30:26.008Z,3.03
2019-04-27T22:33:37.562Z,3.30
2019-04-27T22:37:13.676Z,3.00
2019-04-27T22:40:24.349Z,2.80
2019-04-27T22:43:33.986Z,3.03
2019-04-27T22:49:25.110Z,3.10
2019-04-27T22:59:03.167Z,3.40
2019-04-27T23:02:31.731Z,3.50
2019-04-27T23:05:21.891Z,3.00
2019-04-27T23:11:51.670Z,3.47
2019-04-27T23:14:47.329Z,3.60
2019-04-27T23:18:14.199Z,3.20
2019-04-27T23:24:36.932Z,3.80
2019-04-27T23:27:28.707Z,3.50
2019-04-27T23:36:41.577Z,3.70
2019-04-27T23:39:28.063Z,3.57
2019-04-27T23:42:13.031Z,3.93
